createdAt,value
2019-02-18T00:00:52.970Z,0.53
2019-02-18T00:03:23.084Z,0.52
2019-02-18T00:05:52.633Z,0.38
2019-02-18T00:08:20.501Z,0.45
2019-02-18T00:10:48.630Z,0.44
2019-02-18T00:13:16.631Z,0.43
2019-02-18T00:15:44.642Z,0.37
2019-02-18T00:18:12.638Z,0.30
2019-02-18T00:20:40.833Z,0.28
2019-02-18T00:23:08.669Z,0.26
2019-02-18T00:25:36.626Z,0.23
2019-02-18T00:28:04.603Z,0.23
2019-02-18T00:30:32.571Z,0.20
2019-02-18T00:33:00.636Z,0.16
2019-02-18T00:35:28.689Z,0.07
2019-02-18T00:37:56.756Z,0.12
2019-02-18T00:40:24.614Z,0.06
2019-02-18T00:42:52.652Z,0.06
2019-02-18T00:45:20.566Z,0.01
2019-02-18T00:47:48.519Z,0.00
2019-02-18T00:50:16.511Z,-0.04
2019-02-18T00:52:44.610Z,-0.08
2019-02-18T00:55:12.645Z,-0.11
2019-02-18T00:57:40.548Z,-0.16
2019-02-18T01:00:10.996Z,-0.17
2019-02-18T01:02:39.131Z,-0.18
2019-02-18T01:05:07.413Z,-0.18
2019-02-18T01:07:36.503Z,-0.28
2019-02-18T01:10:05.019Z,-0.31
2019-02-18T01:12:32.993Z,-0.30
2019-02-18T01:15:00.940Z,-0.31
2019-02-18T01:17:28.870Z,-0.37
2019-02-18T01:19:56.765Z,-0.41
2019-02-18T01:22:24.885Z,-0.38
2019-02-18T01:24:52.877Z,-0.36
2019-02-18T01:27:20.949Z,-0.37
2019-02-18T01:29:48.793Z,-0.37
2019-02-18T01:32:16.711Z,-0.47
2019-02-18T01:34:44.918Z,-0.46
2019-02-18T01:37:13.055Z,-0.47
2019-02-18T01:39:40.795Z,-0.49
2019-02-18T01:42:08.752Z,-0.58
2019-02-18T01:44:36.534Z,-0.59
2019-02-18T01:47:04.519Z,-0.59
2019-02-18T01:49:32.312Z,-0.60
2019-02-18T01:52:00.246Z,-0.64
2019-02-18T01:54:28.117Z,-0.68
2019-02-18T01:56:56.084Z,-0.78
2019-02-18T01:59:24.066Z,-0.94
2019-02-18T02:01:52.309Z,-0.99
2019-02-18T02:04:20.250Z,-1.01
2019-02-18T02:06:48.279Z,-0.97
2019-02-18T02:09:16.151Z,-0.89
2019-02-18T02:11:44.184Z,-0.89
2019-02-18T02:14:12.089Z,-0.89
2019-02-18T02:16:40.142Z,-0.88
2019-02-18T02:19:08.069Z,-0.90
2019-02-18T02:21:36.179Z,-0.87
2019-02-18T02:24:04.214Z,-0.86
2019-02-18T02:26:32.326Z,-0.90
2019-02-18T02:29:00.559Z,-0.95
2019-02-18T02:31:28.580Z,-0.91
2019-02-18T02:33:56.477Z,-0.94
2019-02-18T02:36:24.770Z,-0.95
2019-02-18T02:38:52.783Z,-1.04
2019-02-18T02:41:20.812Z,-0.99
2019-02-18T02:43:48.967Z,-1.01
2019-02-18T02:46:18.499Z,-1.00
2019-02-18T02:48:46.443Z,-1.06
2019-02-18T02:51:14.309Z,-1.08
2019-02-18T02:53:42.151Z,-1.08
2019-02-18T02:56:09.815Z,-1.08
2019-02-18T02:58:37.767Z,-1.10
2019-02-18T03:01:06.023Z,-1.09
2019-02-18T03:03:33.920Z,-1.13
2019-02-18T03:06:01.808Z,-1.20
2019-02-18T03:08:29.743Z,-1.24
2019-02-18T03:10:57.458Z,-1.39
2019-02-18T03:13:25.382Z,-1.40
2019-02-18T03:15:53.537Z,-1.30
2019-02-18T03:18:21.447Z,-1.36
2019-02-18T03:20:49.524Z,-1.41
2019-02-18T03:23:17.652Z,-1.37
2019-02-18T03:25:47.629Z,-1.35
2019-02-18T03:28:37.767Z,-1.39
2019-02-18T03:31:09.632Z,-1.35
2019-02-18T03:33:41.459Z,-1.35
2019-02-18T03:36:09.576Z,-1.35
2019-02-18T03:38:37.647Z,-1.36
2019-02-18T03:41:05.774Z,-1.44
2019-02-18T03:43:33.898Z,-1.49
2019-02-18T03:46:01.982Z,-1.57
2019-02-18T03:48:30.017Z,-1.51
2019-02-18T03:50:57.891Z,-1.55
2019-02-18T03:53:25.878Z,-1.53
2019-02-18T03:55:53.774Z,-1.54
2019-02-18T03:58:21.852Z,-1.54
2019-02-18T04:00:49.796Z,-1.56
2019-02-18T04:03:17.920Z,-1.68
2019-02-18T04:05:45.962Z,-1.65
2019-02-18T04:08:13.930Z,-1.66
2019-02-18T04:10:42.130Z,-1.69
2019-02-18T04:13:10.104Z,-1.66
2019-02-18T04:15:38.282Z,-1.79
2019-02-18T04:18:06.416Z,-1.77
2019-02-18T04:20:34.603Z,-1.74
2019-02-18T04:23:02.912Z,-1.73
2019-02-18T04:25:31.128Z,-1.71
2019-02-18T04:27:59.135Z,-1.71
2019-02-18T04:30:27.156Z,-1.79
2019-02-18T04:32:56.199Z,-1.78
2019-02-18T04:35:24.090Z,-1.85
2019-02-18T04:37:52.183Z,-1.85
2019-02-18T04:40:20.321Z,-1.86
2019-02-18T04:42:48.240Z,-1.90
2019-02-18T04:45:16.362Z,-1.91
2019-02-18T04:47:44.354Z,-1.93
2019-02-18T04:50:12.154Z,-1.94
2019-02-18T04:52:39.846Z,-1.94
2019-02-18T04:55:07.920Z,-2.01
2019-02-18T04:57:36.936Z,-2.06
2019-02-18T05:00:05.558Z,-2.09
2019-02-18T05:02:33.403Z,-2.08
2019-02-18T05:05:01.391Z,-2.16
2019-02-18T05:07:29.313Z,-2.12
2019-02-18T05:09:57.148Z,-2.07
2019-02-18T05:12:25.075Z,-2.14
2019-02-18T05:14:53.153Z,-2.13
2019-02-18T05:17:21.255Z,-2.09
2019-02-18T05:19:49.327Z,-2.10
2019-02-18T05:22:17.131Z,-2.08
2019-02-18T05:24:44.946Z,-2.05
2019-02-18T05:27:12.908Z,-2.04
2019-02-18T05:29:40.667Z,-2.07
2019-02-18T05:32:08.623Z,-2.11
2019-02-18T05:34:36.711Z,-2.07
2019-02-18T05:37:04.580Z,-2.15
2019-02-18T05:39:32.626Z,-2.39
2019-02-18T05:42:00.724Z,-2.27
2019-02-18T05:44:28.500Z,-2.21
2019-02-18T05:46:56.489Z,-2.28
2019-02-18T05:49:24.397Z,-2.36
2019-02-18T05:51:52.633Z,-2.34
2019-02-18T05:54:20.390Z,-2.34
2019-02-18T05:56:48.389Z,-2.39
2019-02-18T05:59:16.453Z,-2.36
2019-02-18T06:01:44.526Z,-2.29
2019-02-18T06:04:12.479Z,-2.33
2019-02-18T06:06:40.735Z,-2.27
2019-02-18T06:09:08.627Z,-2.23
2019-02-18T06:11:36.776Z,-2.25
2019-02-18T06:14:04.551Z,-2.16
2019-02-18T06:16:32.409Z,-2.14
2019-02-18T06:19:00.163Z,-2.00
2019-02-18T06:21:28.243Z,-1.87
2019-02-18T06:23:56.179Z,-1.78
2019-02-18T06:26:24.180Z,-1.65
2019-02-18T06:28:51.956Z,-1.49
2019-02-18T06:31:20.224Z,-1.26
2019-02-18T06:33:48.377Z,-0.97
2019-02-18T06:36:16.414Z,-0.89
2019-02-18T06:38:44.444Z,-0.70
2019-02-18T06:41:12.341Z,-0.35
2019-02-18T06:43:41.301Z,-0.18
2019-02-18T06:46:31.256Z,0.03
2019-02-18T06:49:17.163Z,0.24
2019-02-18T06:51:45.142Z,0.58
2019-02-18T06:54:13.214Z,0.86
2019-02-18T06:57:19.237Z,1.02
2019-02-18T07:00:09.526Z,1.24
2019-02-18T07:02:46.114Z,1.50
2019-02-18T07:05:51.693Z,1.76
2019-02-18T07:08:37.763Z,2.12
2019-02-18T07:11:15.886Z,2.46
2019-02-18T07:13:44.740Z,2.68
2019-02-18T07:16:12.648Z,3.01
2019-02-18T07:18:40.640Z,3.30
2019-02-18T07:21:08.462Z,3.64
2019-02-18T07:23:36.332Z,4.06
2019-02-18T07:26:04.502Z,4.40
2019-02-18T07:28:32.560Z,4.80
2019-02-18T07:31:01.636Z,5.15
2019-02-18T07:33:29.442Z,5.48
2019-02-18T07:35:57.289Z,5.84
2019-02-18T07:38:25.173Z,6.12
2019-02-18T07:40:53.024Z,5.99
2019-02-18T07:43:22.993Z,6.08
2019-02-18T07:45:50.762Z,5.97
2019-02-18T07:48:18.726Z,6.24
2019-02-18T07:50:46.666Z,6.44
2019-02-18T07:53:14.546Z,6.63
2019-02-18T07:55:42.410Z,6.51
2019-02-18T07:58:10.419Z,6.61
2019-02-18T08:00:38.528Z,6.80
2019-02-18T08:03:06.295Z,7.34
2019-02-18T08:05:34.220Z,7.63
2019-02-18T08:08:02.222Z,8.02
2019-02-18T08:10:30.180Z,8.22
2019-02-18T08:12:58.244Z,8.00
2019-02-18T08:15:26.323Z,8.19
2019-02-18T08:17:54.240Z,8.26
2019-02-18T08:20:22.215Z,8.55
2019-02-18T08:22:50.475Z,8.97
2019-02-18T08:25:18.517Z,9.27
2019-02-18T08:27:46.518Z,9.48
2019-02-18T08:30:14.745Z,9.54
2019-02-18T08:32:42.564Z,9.74
2019-02-18T08:35:10.591Z,9.68
2019-02-18T08:37:38.612Z,9.76
2019-02-18T08:40:06.765Z,9.93
2019-02-18T08:42:34.770Z,10.34
2019-02-18T08:45:02.611Z,10.80
2019-02-18T08:47:30.511Z,11.04
2019-02-18T08:49:58.459Z,11.26
2019-02-18T08:52:26.457Z,11.64
2019-02-18T08:54:56.798Z,11.95
2019-02-18T08:57:24.421Z,11.93
2019-02-18T08:59:52.540Z,11.91
2019-02-18T09:02:20.592Z,11.90
2019-02-18T09:04:48.557Z,11.65
2019-02-18T09:07:16.504Z,11.60
2019-02-18T09:09:45.050Z,12.26
2019-02-18T09:12:13.040Z,12.16
2019-02-18T09:14:41.068Z,12.60
2019-02-18T09:17:10.171Z,12.43
2019-02-18T09:19:38.326Z,12.82
2019-02-18T09:22:24.598Z,13.21
2019-02-18T09:25:01.872Z,13.30
2019-02-18T09:27:33.012Z,13.35
2019-02-18T09:30:01.189Z,13.56
2019-02-18T09:32:29.178Z,13.82
2019-02-18T09:35:02.085Z,13.88
2019-02-18T09:37:26.951Z,13.88
2019-02-18T09:39:54.748Z,14.25
2019-02-18T09:42:22.684Z,14.57
2019-02-18T09:44:50.563Z,14.27
2019-02-18T09:47:18.672Z,14.90
2019-02-18T09:49:46.728Z,14.90
2019-02-18T09:52:14.880Z,14.70
2019-02-18T09:54:42.782Z,14.28
2019-02-18T09:57:10.707Z,14.23
2019-02-18T09:59:38.706Z,14.27
2019-02-18T10:02:06.742Z,13.87
2019-02-18T10:04:34.674Z,13.55
2019-02-18T10:07:02.610Z,14.07
2019-02-18T10:09:30.696Z,14.50
2019-02-18T10:11:58.583Z,14.60
2019-02-18T10:14:26.670Z,14.63
2019-02-18T10:16:54.926Z,14.57
2019-02-18T10:19:23.058Z,14.77
2019-02-18T10:21:51.290Z,14.84
2019-02-18T10:24:21.389Z,15.18
2019-02-18T10:26:49.450Z,15.23
2019-02-18T10:29:17.347Z,15.74
2019-02-18T10:31:45.623Z,15.88
2019-02-18T10:34:14.812Z,15.73
2019-02-18T10:36:43.758Z,16.02
2019-02-18T10:39:11.842Z,16.24
2019-02-18T10:41:39.952Z,15.91
2019-02-18T10:44:07.920Z,16.46
2019-02-18T10:46:35.864Z,16.31
2019-02-18T10:49:03.962Z,16.63
2019-02-18T10:51:32.031Z,17.11
2019-02-18T10:54:00.040Z,17.31
2019-02-18T10:56:28.381Z,16.78
2019-02-18T10:58:56.514Z,17.23
2019-02-18T11:01:24.636Z,17.29
2019-02-18T11:03:54.213Z,17.80
2019-02-18T11:06:22.342Z,17.05
2019-02-18T11:08:50.432Z,16.94
2019-02-18T11:11:18.584Z,16.98
2019-02-18T11:13:46.629Z,17.67
2019-02-18T11:16:14.598Z,17.40
2019-02-18T11:18:42.617Z,17.74
2019-02-18T11:21:11.143Z,17.60
2019-02-18T11:23:39.069Z,18.14
2019-02-18T11:26:06.871Z,18.46
2019-02-18T11:28:34.540Z,18.36
2019-02-18T11:31:02.624Z,18.09
2019-02-18T11:33:30.559Z,17.82
2019-02-18T11:35:58.786Z,18.18
2019-02-18T11:38:26.792Z,18.36
2019-02-18T11:40:54.880Z,18.58
2019-02-18T11:43:22.824Z,18.52
2019-02-18T11:45:50.915Z,17.93
2019-02-18T11:48:18.921Z,18.71
2019-02-18T11:50:46.876Z,18.25
2019-02-18T11:53:14.721Z,18.43
2019-02-18T11:55:42.458Z,18.81
2019-02-18T11:58:10.455Z,19.10
2019-02-18T12:00:38.343Z,19.02
2019-02-18T12:03:11.622Z,19.23
2019-02-18T12:05:36.613Z,19.37
2019-02-18T12:08:04.890Z,19.35
2019-02-18T12:10:32.675Z,19.40
2019-02-18T12:13:00.536Z,19.32
2019-02-18T12:15:28.250Z,19.18
2019-02-18T12:17:56.381Z,19.23
2019-02-18T12:20:24.446Z,19.36
2019-02-18T12:22:52.701Z,19.56
2019-02-18T12:25:21.388Z,19.61
2019-02-18T12:27:49.460Z,19.78
2019-02-18T12:30:17.391Z,19.78
2019-02-18T12:32:45.307Z,19.55
2019-02-18T12:35:13.132Z,19.75
2019-02-18T12:37:41.248Z,19.78
2019-02-18T12:40:09.263Z,19.33
2019-02-18T12:42:37.594Z,19.37
2019-02-18T12:45:06.120Z,19.38
2019-02-18T12:47:34.128Z,19.72
2019-02-18T12:50:02.169Z,19.63
2019-02-18T12:52:30.246Z,19.56
2019-02-18T12:55:00.380Z,19.35
2019-02-18T12:57:28.165Z,19.71
2019-02-18T12:59:56.616Z,19.37
2019-02-18T13:02:24.730Z,19.60
2019-02-18T13:04:52.661Z,20.03
2019-02-18T13:07:20.634Z,19.91
2019-02-18T13:09:48.537Z,19.88
2019-02-18T13:12:16.472Z,19.82
2019-02-18T13:14:44.468Z,19.89
2019-02-18T13:17:12.575Z,19.75
2019-02-18T13:19:41.044Z,19.78
2019-02-18T13:22:09.109Z,19.98
2019-02-18T13:24:36.948Z,19.97
2019-02-18T13:27:04.936Z,19.78
2019-02-18T13:29:32.943Z,20.02
2019-02-18T13:32:00.943Z,20.21
2019-02-18T13:34:28.843Z,20.08
2019-02-18T13:36:57.256Z,20.23
2019-02-18T13:39:25.576Z,20.22
2019-02-18T13:41:53.378Z,20.29
2019-02-18T13:44:21.270Z,20.52
2019-02-18T13:46:49.263Z,20.65
2019-02-18T13:49:17.577Z,20.57
2019-02-18T13:51:45.471Z,20.42
2019-02-18T13:54:13.694Z,20.59
2019-02-18T13:56:41.588Z,20.45
2019-02-18T13:59:09.520Z,20.77
2019-02-18T14:01:37.412Z,21.16
2019-02-18T14:04:05.546Z,21.54
2019-02-18T14:06:33.367Z,21.67
2019-02-18T14:09:01.267Z,21.74
2019-02-18T14:11:31.142Z,21.95
2019-02-18T14:13:59.072Z,22.27
2019-02-18T14:16:27.098Z,22.06
2019-02-18T14:18:55.102Z,21.76
2019-02-18T14:21:23.209Z,21.76
2019-02-18T14:23:51.355Z,22.06
2019-02-18T14:26:19.468Z,21.67
2019-02-18T14:28:47.365Z,21.96
2019-02-18T14:31:15.509Z,21.50
2019-02-18T14:33:43.558Z,22.01
2019-02-18T14:36:11.428Z,21.48
2019-02-18T14:38:39.782Z,21.28
2019-02-18T14:41:08.371Z,21.05
2019-02-18T14:43:36.769Z,20.75
2019-02-18T14:46:04.739Z,20.48
2019-02-18T14:48:32.763Z,20.07
2019-02-18T14:51:00.786Z,19.87
2019-02-18T14:53:28.817Z,19.62
2019-02-18T14:55:56.405Z,19.36
2019-02-18T14:58:24.416Z,19.24
2019-02-18T15:00:52.342Z,18.93
2019-02-18T15:03:20.496Z,18.88
2019-02-18T15:05:48.444Z,18.84
2019-02-18T15:08:16.466Z,18.58
2019-02-18T15:10:44.554Z,18.31
2019-02-18T15:13:12.562Z,18.28
2019-02-18T15:15:40.558Z,18.32
2019-02-18T15:18:08.851Z,18.19
2019-02-18T15:20:36.872Z,17.91
2019-02-18T15:23:04.743Z,17.71
2019-02-18T15:25:32.807Z,17.41
2019-02-18T15:28:00.912Z,17.43
2019-02-18T15:30:28.940Z,17.42
2019-02-18T15:32:57.301Z,17.30
2019-02-18T15:35:25.322Z,17.13
2019-02-18T15:37:53.327Z,17.07
2019-02-18T15:40:21.408Z,17.07
2019-02-18T15:42:49.581Z,16.89
2019-02-18T15:45:17.639Z,16.77
2019-02-18T15:47:45.731Z,16.60
2019-02-18T15:50:14.370Z,16.17
2019-02-18T15:52:42.478Z,15.89
2019-02-18T15:55:10.670Z,15.96
2019-02-18T15:57:38.787Z,16.01
2019-02-18T16:00:09.614Z,15.68
2019-02-18T16:02:37.821Z,15.38
2019-02-18T16:05:05.972Z,15.15
2019-02-18T16:07:34.172Z,14.90
2019-02-18T16:10:02.482Z,14.49
2019-02-18T16:12:30.537Z,14.25
2019-02-18T16:14:58.567Z,13.94
2019-02-18T16:17:26.680Z,13.72
2019-02-18T16:19:54.744Z,13.59
2019-02-18T16:22:23.230Z,13.49
2019-02-18T16:24:51.269Z,13.21
2019-02-18T16:27:19.383Z,12.86
2019-02-18T16:29:47.432Z,12.54
2019-02-18T16:32:15.569Z,12.42
2019-02-18T16:34:43.529Z,12.24
2019-02-18T16:37:11.906Z,12.20
2019-02-18T16:39:39.915Z,12.07
2019-02-18T16:42:08.170Z,11.86
2019-02-18T16:44:36.248Z,11.72
2019-02-18T16:47:05.904Z,11.49
2019-02-18T16:49:34.085Z,11.39
2019-02-18T16:52:02.009Z,11.19
2019-02-18T16:54:29.935Z,11.10
2019-02-18T16:56:57.974Z,10.95
2019-02-18T16:59:25.985Z,10.83
2019-02-18T17:01:55.404Z,10.68
2019-02-18T17:04:23.376Z,10.52
2019-02-18T17:06:51.168Z,10.36
2019-02-18T17:09:19.510Z,10.19
2019-02-18T17:11:47.299Z,9.87
2019-02-18T17:14:15.252Z,9.71
2019-02-18T17:16:43.154Z,9.54
2019-02-18T17:19:11.122Z,9.45
2019-02-18T17:21:39.084Z,9.35
2019-02-18T17:24:06.947Z,9.18
2019-02-18T17:26:35.110Z,9.11
2019-02-18T17:29:03.163Z,8.95
2019-02-18T17:31:30.925Z,8.71
2019-02-18T17:33:58.898Z,8.45
2019-02-18T17:36:26.796Z,8.14
2019-02-18T17:38:54.940Z,7.79
2019-02-18T17:41:22.920Z,7.72
2019-02-18T17:43:51.094Z,7.62
2019-02-18T17:46:19.007Z,7.48
2019-02-18T17:48:47.976Z,7.46
2019-02-18T17:51:16.258Z,7.29
2019-02-18T17:53:45.399Z,7.23
2019-02-18T17:56:13.296Z,7.14
2019-02-18T17:58:41.366Z,7.08
2019-02-18T18:01:09.358Z,6.89
2019-02-18T18:03:37.312Z,6.86
2019-02-18T18:06:06.299Z,6.81
2019-02-18T18:08:34.177Z,6.52
2019-02-18T18:11:02.148Z,6.26
2019-02-18T18:13:30.089Z,6.18
2019-02-18T18:15:59.193Z,6.19
2019-02-18T18:18:27.273Z,6.22
2019-02-18T18:20:55.274Z,6.10
2019-02-18T18:23:23.525Z,6.13
2019-02-18T18:25:51.490Z,6.03
2019-02-18T18:28:19.564Z,5.93
2019-02-18T18:30:47.732Z,5.92
2019-02-18T18:33:16.058Z,5.93
2019-02-18T18:35:44.066Z,5.91
2019-02-18T18:38:11.997Z,5.81
2019-02-18T18:40:40.256Z,5.75
2019-02-18T18:43:08.011Z,5.71
2019-02-18T18:45:36.130Z,5.67
2019-02-18T18:48:04.221Z,5.58
2019-02-18T18:50:33.171Z,5.55
2019-02-18T18:53:01.201Z,5.45
2019-02-18T18:55:28.971Z,5.43
2019-02-18T18:57:56.944Z,5.32
2019-02-18T19:00:25.690Z,5.19
2019-02-18T19:02:53.787Z,5.16
2019-02-18T19:05:22.265Z,5.12
2019-02-18T19:07:51.798Z,5.09
2019-02-18T19:10:20.128Z,5.03
2019-02-18T19:12:48.155Z,4.95
2019-02-18T19:15:16.095Z,4.91
2019-02-18T19:17:44.182Z,4.85
2019-02-18T19:20:12.599Z,4.81
2019-02-18T19:22:40.539Z,4.73
2019-02-18T19:25:09.337Z,4.66
2019-02-18T19:27:37.384Z,4.56
2019-02-18T19:30:06.751Z,4.45
2019-02-18T19:32:34.534Z,4.44
2019-02-18T19:35:02.877Z,4.36
2019-02-18T19:37:30.827Z,4.32
2019-02-18T19:39:59.940Z,4.32
2019-02-18T19:42:27.856Z,4.22
2019-02-18T19:44:55.892Z,4.25
2019-02-18T19:47:23.647Z,4.20
2019-02-18T19:49:51.955Z,4.10
2019-02-18T19:52:20.144Z,3.98
2019-02-18T19:54:49.658Z,3.93
2019-02-18T19:57:17.892Z,3.87
2019-02-18T19:59:46.072Z,3.77
2019-02-18T20:02:14.243Z,3.81
2019-02-18T20:04:42.378Z,3.79
2019-02-18T20:07:10.691Z,3.71
2019-02-18T20:09:38.563Z,3.67
2019-02-18T20:12:06.642Z,3.59
2019-02-18T20:14:34.643Z,3.48
2019-02-18T20:17:03.554Z,3.54
2019-02-18T20:19:31.666Z,3.47
2019-02-18T20:22:00.154Z,3.55
2019-02-18T20:24:28.201Z,3.50
2019-02-18T20:26:56.241Z,3.46
2019-02-18T20:29:24.327Z,3.43
2019-02-18T20:31:53.566Z,3.40
2019-02-18T20:34:21.500Z,3.38
2019-02-18T20:36:49.600Z,3.36
2019-02-18T20:39:17.937Z,3.31
2019-02-18T20:41:45.887Z,3.29
2019-02-18T20:44:16.532Z,3.25
2019-02-18T20:46:44.564Z,3.20
2019-02-18T20:49:12.584Z,3.15
2019-02-18T20:51:40.498Z,3.13
2019-02-18T20:54:08.622Z,3.10
2019-02-18T20:56:36.592Z,2.99
2019-02-18T20:59:04.701Z,2.94
2019-02-18T21:01:32.638Z,2.91
2019-02-18T21:04:00.481Z,2.90
2019-02-18T21:06:28.426Z,2.85
2019-02-18T21:08:56.231Z,2.83
2019-02-18T21:11:24.127Z,2.77
2019-02-18T21:13:52.254Z,2.74
2019-02-18T21:16:19.967Z,2.72
2019-02-18T21:18:48.142Z,2.65
2019-02-18T21:21:16.218Z,2.64
2019-02-18T21:23:44.048Z,2.59
2019-02-18T21:26:12.361Z,2.59
2019-02-18T21:28:40.361Z,2.58
2019-02-18T21:31:08.285Z,2.53
2019-02-18T21:33:36.158Z,2.44
2019-02-18T21:36:04.248Z,2.39
2019-02-18T21:38:32.327Z,2.37
2019-02-18T21:41:00.336Z,2.32
2019-02-18T21:43:28.611Z,2.29
2019-02-18T21:45:56.776Z,2.23
2019-02-18T21:48:24.781Z,2.21
2019-02-18T21:50:52.689Z,2.14
2019-02-18T21:53:20.705Z,2.09
2019-02-18T21:55:48.703Z,2.02
2019-02-18T21:58:16.651Z,2.01
2019-02-18T22:00:44.544Z,1.98
2019-02-18T22:03:12.625Z,1.94
2019-02-18T22:05:40.745Z,1.92
2019-02-18T22:08:08.481Z,1.89
2019-02-18T22:10:36.302Z,1.84
2019-02-18T22:13:04.245Z,1.83
2019-02-18T22:15:32.246Z,1.81
2019-02-18T22:18:00.133Z,1.76
2019-02-18T22:20:27.984Z,1.69
2019-02-18T22:22:56.004Z,1.65
2019-02-18T22:25:24.105Z,1.61
2019-02-18T22:27:52.719Z,1.60
2019-02-18T22:30:20.847Z,1.52
2019-02-18T22:32:48.840Z,1.49
2019-02-18T22:35:17.001Z,1.53
2019-02-18T22:37:44.817Z,1.49
2019-02-18T22:40:13.138Z,1.47
2019-02-18T22:42:41.017Z,1.43
2019-02-18T22:45:09.003Z,1.40
2019-02-18T22:47:36.852Z,1.38
2019-02-18T22:50:04.921Z,1.37
2019-02-18T22:52:33.308Z,1.32
2019-02-18T22:55:01.609Z,1.25
2019-02-18T22:57:29.846Z,1.19
2019-02-18T22:59:57.931Z,1.15
2019-02-18T23:02:25.823Z,1.15
2019-02-18T23:04:53.864Z,1.14
2019-02-18T23:07:21.763Z,1.13
2019-02-18T23:09:50.208Z,1.12
2019-02-18T23:12:18.013Z,1.12
2019-02-18T23:14:50.547Z,1.10
2019-02-18T23:17:15.997Z,1.09
2019-02-18T23:19:43.843Z,1.06
2019-02-18T23:22:11.931Z,1.03
2019-02-18T23:24:39.993Z,0.98
2019-02-18T23:27:09.201Z,0.96
2019-02-18T23:29:37.253Z,0.91
2019-02-18T23:32:05.203Z,0.89
2019-02-18T23:34:33.295Z,0.87
2019-02-18T23:37:01.358Z,0.86
2019-02-18T23:39:29.329Z,0.82
2019-02-18T23:41:57.322Z,0.80
2019-02-18T23:44:25.364Z,0.81
2019-02-18T23:46:53.167Z,0.81
2019-02-18T23:49:21.257Z,0.74
2019-02-18T23:51:49.108Z,0.73
2019-02-18T23:54:17.160Z,0.70
2019-02-18T23:56:45.278Z,0.71
2019-02-18T23:59:13.259Z,0.64
